Time;durP1;ratioP1;P1;durP2;ratioP2;P2;SDS_P1;SDS_P2;PMS_P1;PMS_P2;Temp;Humidity;BMP_temperature;BMP_pressure;BME280_temperature;BME280_humidity;BME280_pressure;Samples;Min_cycle;Max_cycle;Signal;HPM_P1;HPM_P2
2021/06/30 00:01:28;;;;;;;7.22;5.72;;;16.30;99.90;;;17.81;100.00;100011.84;6308166;22;20011;-90
2021/06/30 00:03:54;;;;;;;7.55;5.70;;;16.30;99.90;;;17.79;100.00;99995.28;6306363;22;20007;-92
2021/06/30 00:06:20;;;;;;;7.00;5.80;;;16.30;99.90;;;17.85;100.00;100001.31;6279537;22;20003;-89
2021/06/30 00:08:48;;;;;;;6.88;5.55;;;16.40;99.90;;;17.87;100.00;99994.00;6306254;22;20008;-89
2021/06/30 00:11:16;;;;;;;8.00;6.57;;;16.40;99.90;;;17.83;100.00;99993.25;6279085;22;20003;-90
2021/06/30 00:13:43;;;;;;;9.98;7.38;;;16.40;99.90;;;17.75;100.00;99997.38;6306594;22;20010;-91
2021/06/30 00:16:10;;;;;;;12.95;8.50;;;16.40;99.90;;;17.63;100.00;100008.41;6284590;22;20086;-90
2021/06/30 00:18:36;;;;;;;13.98;9.35;;;16.40;99.90;;;17.50;100.00;100001.69;6281721;22;20425;-89
2021/06/30 00:21:03;;;;;;;13.35;9.32;;;16.30;99.90;;;17.64;100.00;100005.19;6284223;22;20030;-88
2021/06/30 00:23:29;;;;;;;12.75;9.48;;;16.30;99.90;;;17.66;100.00;99979.34;6284632;22;19999;-89
2021/06/30 00:25:56;;;;;;;14.52;10.52;;;16.30;99.90;;;17.77;100.00;99983.63;6280268;22;20004;-90
2021/06/30 00:28:22;;;;;;;13.70;9.70;;;16.40;99.90;;;17.80;100.00;99988.44;6280338;22;20069;-91
2021/06/30 00:30:48;;;;;;;15.75;11.70;;;16.30;99.90;;;17.77;100.00;99997.75;6283706;22;20008;-90
2021/06/30 08:54:02;;;;;;;2.65;1.67;;;22.50;99.90;;;24.53;59.92;100000.84;6320618;22;20487;-89
2021/06/30 08:56:32;;;;;;;3.15;1.75;;;22.80;99.90;;;24.20;60.66;100000.50;6293761;22;20014;-87
2021/06/30 08:59:04;;;;;;;4.80;1.80;;;22.80;99.90;;;24.74;57.21;100005.66;6292384;22;20010;-87
2021/06/30 09:01:31;;;;;;;2.38;1.52;;;23.20;99.90;;;25.26;56.80;100006.78;6293156;22;20003;-86
2021/06/30 09:04:01;;;;;;;1.30;1.20;;;23.60;99.90;;;26.50;52.35;100007.66;6291939;22;20076;-87
2021/06/30 09:06:29;;;;;;;1.33;1.10;;;24.30;99.90;;;27.31;50.47;100017.94;6292934;22;20003;-87
2021/06/30 09:09:01;;;;;;;2.63;1.10;;;24.90;99.90;;;26.55;51.19;100010.66;6292518;22;20043;-86
2021/06/30 09:11:31;;;;;;;4.65;1.30;;;24.80;99.90;;;26.67;51.56;100011.72;6292519;22;20408;-86
2021/06/30 09:14:29;;;;;;;2.20;1.17;;;24.80;99.90;;;26.98;50.43;100012.25;6290765;22;20000;-84
2021/06/30 09:17:11;;;;;;;1.30;1.05;;;25.00;99.90;;;27.05;50.13;100009.03;6290588;22;20019;-85
2021/06/30 09:19:57;;;;;;;2.15;1.48;;;24.90;99.90;;;25.67;51.05;100017.63;6289109;22;20003;-89
2021/06/30 09:22:41;;;;;;;3.53;1.15;;;24.20;99.90;;;24.34;57.20;100010.56;6305077;22;20146;-89
2021/06/30 09:25:08;;;;;;;1.67;1.20;;;23.20;99.90;;;24.18;59.10;100013.66;6303244;22;20007;-89
2021/06/30 09:27:46;;;;;;;1.80;1.63;;;22.70;99.90;;;23.22;60.11;100019.13;6294505;22;20007;-87
2021/06/30 09:30:14;;;;;;;3.10;1.48;;;22.30;99.90;;;23.21;61.22;100006.16;6291740;22;20022;-86
2021/06/30 09:33:04;;;;;;;1.90;1.30;;;22.00;99.90;;;24.66;60.10;100021.47;6291666;22;20026;-88
2021/06/30 09:35:35;;;;;;;4.25;1.60;;;22.70;99.90;;;25.00;55.71;100017.69;6289231;22;20003;-87
2021/06/30 09:38:34;;;;;;;1.40;1.30;;;23.10;99.90;;;25.01;54.63;100025.00;6317776;22;20459;-87
2021/06/30 09:41:02;;;;;;;3.03;1.50;;;23.20;99.90;;;24.56;56.44;100023.50;6290284;22;20014;-87
2021/06/30 09:43:33;;;;;;;3.88;1.98;;;22.80;99.90;;;24.35;58.36;100027.22;6291407;22;20071;-87
2021/06/30 09:46:17;;;;;;;4.15;2.45;;;22.70;99.90;;;23.55;61.65;100026.13;6291513;22;20003;-89
2021/06/30 09:48:43;;;;;;;4.68;2.28;;;22.20;99.90;;;23.11;63.13;100010.97;6295274;22;20003;-87
2021/06/30 09:51:18;;;;;;;6.00;2.38;;;21.70;99.90;;;22.79;64.15;100023.44;6289428;22;20007;-87
2021/06/30 09:53:44;;;;;;;4.43;2.00;;;21.40;99.90;;;22.21;64.84;100025.63;6288605;22;20007;-85
2021/06/30 09:56:40;;;;;;;4.97;2.00;;;20.90;99.90;;;21.52;65.91;100024.34;6314378;22;20007;-88
2021/06/30 09:59:15;;;;;;;2.28;1.92;;;20.40;99.90;;;21.32;67.48;100023.72;6289102;22;20008;-86
2021/06/30 10:02:12;;;;;;;3.37;1.90;;;20.10;99.90;;;21.30;69.01;100032.66;6316265;22;19999;-88
2021/06/30 10:04:57;;;;;;;3.72;2.28;;;20.00;99.90;;;21.59;67.76;100032.69;6274686;22;20284;-89
2021/06/30 10:07:28;;;;;;;3.95;2.22;;;20.00;99.90;;;21.80;67.92;100031.31;6313530;22;20071;-86
2021/06/30 10:10:09;;;;;;;3.90;2.60;;;20.20;99.90;;;22.75;66.29;100024.78;6288293;22;20003;-88
2021/06/30 10:12:38;;;;;;;2.85;2.08;;;20.90;99.90;;;23.97;61.12;100026.63;6287856;22;20003;-86
2021/06/30 10:15:08;;;;;;;3.03;1.80;;;21.90;99.90;;;25.02;56.75;100035.94;6288895;22;20003;-88
2021/06/30 10:17:36;;;;;;;2.15;1.92;;;22.90;99.90;;;24.74;57.82;100045.66;6289378;22;20007;-87
2021/06/30 10:20:03;;;;;;;1.70;1.60;;;22.90;99.90;;;23.96;58.78;100045.78;6289063;22;20011;-85
2021/06/30 10:22:30;;;;;;;1.80;1.55;;;22.50;99.90;;;23.50;60.41;100043.84;6315356;22;20477;-85
2021/06/30 10:24:57;;;;;;;2.85;1.73;;;21.90;99.90;;;22.76;60.34;100049.16;6289313;22;20136;-88
2021/06/30 10:27:24;;;;;;;2.35;1.40;;;21.50;99.90;;;22.44;61.83;100044.44;6315573;22;20015;-88
2021/06/30 10:30:01;;;;;;;1.30;1.20;;;21.20;99.90;;;23.05;61.15;100046.97;6290734;22;20003;-86
2021/06/30 10:32:28;;;;;;;2.08;1.50;;;21.40;99.90;;;22.97;62.55;100040.72;6290896;22;20386;-86
2021/06/30 10:35:05;;;;;;;1.20;1.10;;;21.70;99.90;;;23.73;59.71;100051.16;6317159;22;19999;-86
2021/06/30 10:37:37;;;;;;;1.50;1.38;;;22.10;99.90;;;23.58;60.45;100045.97;6291312;22;20090;-89
2021/06/30 10:40:10;;;;;;;1.05;1.00;;;22.10;99.90;;;23.42;60.86;100042.47;6291575;22;20007;-87
2021/06/30 10:42:47;;;;;;;1.50;1.10;;;21.90;99.90;;;23.79;59.73;100046.47;6290865;22;20003;-88
2021/06/30 10:45:13;;;;;;;1.25;1.00;;;22.10;99.90;;;24.38;58.42;100057.66;6292384;22;20031;-87
2021/06/30 10:47:41;;;;;;;2.70;0.90;;;22.50;99.90;;;24.32;58.87;100050.97;6292427;22;20007;-86
2021/06/30 10:50:23;;;;;;;0.85;0.85;;;22.50;99.90;;;24.01;58.59;100055.81;6293920;22;20027;-89
2021/06/30 10:53:09;;;;;;;2.47;1.23;;;22.40;99.90;;;24.36;58.94;100048.00;6293813;22;20079;-87
2021/06/30 10:55:36;;;;;;;1.20;0.90;;;22.50;99.90;;;24.11;58.04;100048.91;6291974;22;20078;-87
2021/06/30 10:58:11;;;;;;;1.60;1.00;;;22.40;99.90;;;24.10;58.85;100044.47;6294438;22;20049;-88
2021/06/30 11:01:09;;;;;;;1.98;0.70;;;22.40;99.90;;;24.06;58.62;100049.50;6321244;22;20332;-85
2021/06/30 11:03:49;;;;;;;2.90;1.13;;;22.40;99.90;;;24.10;57.94;100048.13;6288159;22;20004;-86
2021/06/30 11:06:18;;;;;;;2.08;0.80;;;22.50;99.90;;;24.99;57.95;100048.31;6288275;22;20007;-88
2021/06/30 11:08:55;;;;;;;0.77;0.75;;;23.00;99.90;;;25.64;56.01;100052.91;6288171;22;20012;-88
2021/06/30 11:11:33;;;;;;;1.60;0.90;;;23.50;99.90;;;25.12;54.17;100063.25;6289778;22;20004;-88
2021/06/30 11:14:13;;;;;;;1.20;1.10;;;23.50;99.90;;;25.01;54.50;100060.03;6289068;22;20003;-86
2021/06/30 11:16:43;;;;;;;1.58;1.10;;;23.50;99.90;;;24.90;54.75;100065.41;6289530;22;20290;-89
2021/06/30 11:19:31;;;;;;;1.63;1.20;;;23.30;99.90;;;24.95;54.76;100072.56;6297379;22;19998;-85
2021/06/30 11:22:08;;;;;;;1.95;1.00;;;23.20;99.90;;;24.82;55.81;100069.81;6295424;22;20026;-87
2021/06/30 11:24:34;;;;;;;2.00;0.80;;;23.30;99.90;;;25.79;54.49;100061.63;6293387;22;20030;-85
2021/06/30 11:27:21;;;;;;;2.38;1.00;;;23.80;99.90;;;25.74;54.51;100068.00;6320224;22;20007;-84
2021/06/30 11:29:58;;;;;;;1.05;0.80;;;23.90;99.90;;;25.05;55.04;100075.00;6294277;22;20003;-89
2021/06/30 11:35:11;;;;;;;0.77;0.77;;;23.80;99.90;;;25.92;51.77;100082.31;6321081;22;20037;-87
2021/06/30 11:37:40;;;;;;;1.88;0.70;;;24.00;99.90;;;26.30;52.72;100074.03;6304402;22;20011;-87
2021/06/30 11:40:16;;;;;;;1.52;0.63;;;24.30;99.90;;;26.61;51.53;100076.69;6298941;22;20003;-88
2021/06/30 11:42:51;;;;;;;1.85;1.08;;;24.40;99.90;;;25.71;52.19;100084.06;6289195;22;20007;-85
2021/06/30 11:45:34;;;;;;;0.70;0.70;;;24.00;99.90;;;25.16;52.35;100089.63;6314544;22;20170;-86
2021/06/30 11:48:13;;;;;;;1.65;0.80;;;23.70;99.90;;;24.65;54.83;100091.28;6315361;22;20278;-88
2021/06/30 11:50:55;;;;;;;1.77;1.17;;;23.30;99.90;;;24.27;55.58;100091.53;6291413;22;20007;-86
2021/06/30 11:53:47;;;;;;;1.40;1.10;;;23.00;99.90;;;24.20;57.69;100083.25;6316046;22;20007;-89
2021/06/30 11:56:39;;;;;;;1.70;1.13;;;22.70;99.90;;;24.82;57.08;100089.03;6317906;22;19999;-86
2021/06/30 11:59:26;;;;;;;2.42;1.00;;;22.90;99.90;;;25.37;56.75;100099.38;6304575;22;20019;-87
2021/06/30 12:01:53;;;;;;;2.20;1.00;;;23.20;99.90;;;25.18;53.49;100092.00;6316079;22;20056;-87
2021/06/30 12:04:25;;;;;;;3.13;1.13;;;23.30;99.90;;;24.35;55.99;100090.00;6290393;22;20045;-88
2021/06/30 12:07:05;;;;;;;1.23;0.70;;;22.90;99.90;;;24.38;57.19;100097.63;6292064;22;20061;-92
2021/06/30 12:09:39;;;;;;;1.30;1.10;;;22.80;99.90;;;24.48;57.05;100090.72;6292989;22;20000;-90
2021/06/30 12:12:09;;;;;;;3.28;1.17;;;22.70;99.90;;;24.65;57.39;100094.94;6294716;22;20018;-86
2021/06/30 12:14:44;;;;;;;2.70;1.20;;;22.80;99.90;;;24.71;56.87;100097.19;6288614;22;20011;-85
2021/06/30 12:17:14;;;;;;;1.85;1.50;;;22.90;99.90;;;24.94;56.12;100103.22;6291112;22;20018;-88
2021/06/30 12:19:50;;;;;;;2.42;1.90;;;23.00;99.90;;;24.70;56.14;100107.00;6290891;22;20039;-87
2021/06/30 12:22:35;;;;;;;2.50;2.30;;;23.00;99.90;;;24.61;56.07;100102.06;6293387;22;20007;-86
2021/06/30 12:25:05;;;;;;;4.03;2.17;;;22.80;99.90;;;24.14;57.83;100096.53;6293633;22;20007;-88
2021/06/30 12:27:38;;;;;;;2.13;1.60;;;22.60;99.90;;;24.30;58.27;100087.75;6292133;22;20023;-87
2021/06/30 12:30:11;;;;;;;1.65;1.48;;;22.50;99.90;;;24.33;57.26;100092.53;6293972;22;20083;-86
2021/06/30 12:32:44;;;;;;;2.05;1.30;;;22.50;99.90;;;24.31;56.95;100095.03;6292902;22;20071;-87
2021/06/30 13:45:07;;;;;;;7.20;6.53;;;20.40;99.90;;;21.81;64.62;100126.69;6284793;22;20326;-91
2021/06/30 13:47:34;;;;;;;7.70;6.88;;;20.30;99.90;;;21.89;65.46;100108.22;6283913;22;20111;-89
2021/06/30 13:50:00;;;;;;;7.60;6.90;;;20.40;99.90;;;22.00;65.03;100120.09;6285234;22;20027;-91
2021/06/30 13:52:26;;;;;;;9.32;8.43;;;20.40;99.90;;;22.17;63.90;100115.97;6282651;22;20004;-91
2021/06/30 13:54:53;;;;;;;8.40;7.60;;;20.50;99.90;;;22.14;64.25;100114.00;6283279;22;20076;-90
2021/06/30 13:57:18;;;;;;;8.15;7.35;;;20.50;99.90;;;22.15;64.16;100115.63;6283871;22;20018;-89
2021/06/30 13:59:44;;;;;;;8.43;7.63;;;20.60;99.90;;;22.22;63.94;100134.53;6284674;22;20011;-87
2021/06/30 14:02:10;;;;;;;8.38;7.57;;;20.70;99.90;;;22.46;64.40;100118.78;6285749;22;20033;-88
2021/06/30 14:04:36;;;;;;;11.73;10.27;;;20.80;99.90;;;22.55;62.38;100125.38;6288359;22;20014;-87
2021/06/30 14:07:02;;;;;;;10.45;9.35;;;20.90;99.90;;;22.46;62.36;100121.63;6284912;22;20380;-89
2021/06/30 14:09:28;;;;;;;9.77;8.82;;;20.90;99.90;;;22.18;63.72;100122.44;6286443;22;20015;-87
2021/06/30 14:11:54;;;;;;;8.60;7.80;;;20.70;99.90;;;22.04;64.17;100115.91;6287901;22;20059;-91
2021/06/30 14:14:23;;;;;;;7.35;6.65;;;20.50;99.90;;;21.68;66.39;100131.50;6285667;22;19991;-90
2021/06/30 14:16:50;;;;;;;5.68;5.07;;;20.30;99.90;;;21.62;66.02;100131.25;6286075;22;20000;-88
2021/06/30 14:19:16;;;;;;;6.60;5.90;;;20.20;99.90;;;21.96;65.19;100128.72;6286842;22;20000;-91
2021/06/30 14:21:42;;;;;;;7.03;6.22;;;20.40;99.90;;;22.05;64.02;100126.06;6289682;22;19998;-89
2021/06/30 14:24:08;;;;;;;7.88;6.22;;;20.40;99.90;;;22.11;63.93;100123.44;6286166;22;20075;-88
2021/06/30 14:26:40;;;;;;;6.05;5.45;;;20.50;99.90;;;22.05;64.93;100125.25;6286097;22;20029;-90
2021/06/30 14:29:06;;;;;;;5.40;4.90;;;20.60;99.90;;;21.92;64.25;100130.88;6286202;22;20058;-89
2021/06/30 14:31:32;;;;;;;5.57;5.07;;;20.50;99.90;;;21.78;63.98;100130.41;6282305;22;20010;-89
2021/06/30 14:33:57;;;;;;;5.50;5.00;;;20.40;99.90;;;21.73;64.47;100137.47;6281213;22;20003;-89
2021/06/30 14:36:26;;;;;;;5.78;4.82;;;20.30;99.90;;;21.73;64.40;100133.81;6282163;22;20015;-89
2021/06/30 14:38:51;;;;;;;5.75;5.13;;;20.30;99.90;;;21.84;66.18;100137.16;6282614;22;20004;-90
2021/06/30 14:41:17;;;;;;;7.85;6.63;;;20.30;99.90;;;21.88;64.74;100137.88;6282407;22;20075;-89
2021/06/30 14:43:43;;;;;;;7.85;7.15;;;20.40;99.90;;;21.82;65.38;100143.31;6282738;22;20035;-92
2021/06/30 14:46:10;;;;;;;7.75;6.63;;;20.40;99.90;;;22.18;64.93;100136.66;6282255;22;20011;-90
2021/06/30 14:48:36;;;;;;;6.95;6.25;;;20.50;99.90;;;22.27;63.20;100137.63;6280634;22;20012;-87
2021/06/30 14:51:02;;;;;;;6.60;6.00;;;20.60;99.90;;;22.51;63.55;100140.97;6278207;22;20428;-85
2021/06/30 14:53:28;;;;;;;5.20;4.70;;;20.80;99.90;;;22.28;62.77;100142.06;6277860;22;20174;-86
2021/06/30 14:55:55;;;;;;;6.47;5.88;;;20.70;99.90;;;22.22;62.71;100143.84;6277641;22;20004;-87
2021/06/30 14:58:22;;;;;;;6.72;6.03;;;20.60;99.90;;;21.80;64.62;100150.69;6278667;22;20007;-88
2021/06/30 15:00:49;;;;;;;7.00;6.22;;;20.50;99.90;;;21.60;65.31;100144.31;6278224;22;20090;-89
2021/06/30 15:03:14;;;;;;;10.38;6.35;;;20.20;99.90;;;21.74;65.86;100146.75;6278505;22;20008;-90
2021/06/30 15:05:40;;;;;;;5.85;5.25;;;20.20;99.90;;;21.86;66.18;100148.91;6279912;22;20064;-90
2021/06/30 15:08:06;;;;;;;6.80;5.68;;;20.30;99.90;;;22.11;65.41;100146.19;6276884;22;20000;-91
2021/06/30 15:10:32;;;;;;;5.65;4.93;;;20.40;99.90;;;22.31;64.90;100138.31;6277680;22;20344;-90
2021/06/30 15:12:58;;;;;;;5.70;4.93;;;20.50;99.90;;;22.50;63.42;100133.69;6277286;22;20012;-90
2021/06/30 15:15:26;;;;;;;7.20;6.43;;;20.60;99.90;;;22.23;64.71;100136.09;6277268;22;20053;-92
2021/06/30 15:17:53;;;;;;;7.03;6.18;;;20.60;99.90;;;22.18;64.82;100131.78;6276905;22;20088;-89
2021/06/30 15:20:20;;;;;;;6.35;5.55;;;20.60;99.90;;;22.31;63.34;100137.50;6276790;22;20011;-91
2021/06/30 15:22:47;;;;;;;6.35;5.28;;;20.60;99.90;;;21.88;63.68;100140.72;6276824;22;20384;-90
2021/06/30 15:25:14;;;;;;;6.22;5.53;;;20.50;99.90;;;21.91;63.65;100134.97;6276707;22;20434;-90
2021/06/30 15:27:43;;;;;;;6.55;5.10;;;20.40;99.90;;;22.14;63.67;100139.63;6276796;22;20010;-89
2021/06/30 15:30:12;;;;;;;5.53;4.88;;;20.50;99.90;;;21.76;64.77;100121.56;6298159;22;20007;-90
2021/06/30 15:32:39;;;;;;;5.22;4.72;;;20.40;99.90;;;21.72;64.86;100126.53;6297055;22;20012;-90
2021/06/30 15:35:07;;;;;;;6.60;5.40;;;20.40;99.90;;;21.77;64.55;100132.47;6279339;22;20000;-91
2021/06/30 15:37:34;;;;;;;6.63;5.22;;;20.40;99.90;;;21.81;63.24;100121.00;6278758;22;20034;-90
2021/06/30 15:40:08;;;;;;;6.88;5.13;;;20.40;99.90;;;22.10;63.35;100121.84;6279718;22;20018;-88
2021/06/30 15:42:37;;;;;;;6.15;5.25;;;20.40;99.90;;;22.25;62.59;100113.72;6281885;22;20061;-90
2021/06/30 15:45:04;;;;;;;8.57;7.07;;;20.60;99.90;;;22.15;61.92;100109.94;6282120;22;20011;-89
2021/06/30 15:47:40;;;;;;;9.00;7.53;;;20.70;99.90;;;22.32;62.05;100107.78;6293523;22;20007;-89
2021/06/30 15:50:08;;;;;;;;;;;20.70;99.90;;;22.42;61.37;100115.22;6291005;22;20099;-92
2021/06/30 15:52:39;;;;;;;9.05;8.15;;;20.80;99.90;;;22.37;61.81;100105.22;6279551;22;19989;-89
2021/06/30 15:55:15;;;;;;;8.30;7.50;;;20.70;99.90;;;21.95;63.57;100106.44;6278265;22;20007;-92
2021/06/30 15:57:42;;;;;;;8.95;8.05;;;20.50;99.90;;;21.80;63.64;100116.59;6278051;22;20004;-90
2021/06/30 16:00:19;;;;;;;10.07;8.55;;;20.40;99.90;;;21.31;64.24;100118.66;6279220;22;20007;-92
2021/06/30 16:02:45;;;;;;;9.98;8.82;;;20.00;99.90;;;20.68;67.80;100120.97;6278704;22;20003;-91
2021/06/30 16:05:14;;;;;;;11.13;8.18;;;19.50;99.90;;;20.52;69.59;100129.44;6276862;22;20373;-91
2021/06/30 16:07:41;;;;;;;13.43;11.32;;;19.30;99.90;;;20.34;69.98;100136.28;6276812;22;20031;-91
2021/06/30 16:10:15;;;;;;;14.95;13.32;;;19.00;99.90;;;20.02;70.92;100124.75;6276331;22;20003;-91
2021/06/30 16:12:41;;;;;;;15.40;13.80;;;18.70;99.90;;;19.68;71.75;100112.88;6277802;22;20007;-90
2021/06/30 16:15:17;;;;;;;16.50;13.55;;;18.50;99.90;;;19.49;73.19;100134.22;6289566;22;20015;-92
2021/06/30 16:17:45;;;;;;;16.38;14.10;;;18.30;99.90;;;19.10;75.49;100123.53;6285974;22;20019;-91
2021/06/30 16:20:17;;;;;;;15.95;13.93;;;18.10;99.90;;;19.16;75.82;100126.69;6283994;22;20007;-91
2021/06/30 16:22:47;;;;;;;16.73;15.00;;;18.00;99.90;;;19.21;75.25;100126.97;6284970;22;20118;-89
2021/06/30 16:25:16;;;;;;;18.13;14.48;;;17.90;99.90;;;19.26;76.30;100128.53;6286305;22;20008;-91
2021/06/30 16:27:45;;;;;;;14.85;12.85;;;18.00;99.90;;;19.44;74.82;100137.56;6290353;22;20003;-92
2021/06/30 16:30:14;;;;;;;12.70;10.68;;;18.10;99.90;;;19.47;74.89;100136.69;6292160;22;20014;-91
2021/06/30 16:32:45;;;;;;;15.55;9.43;;;18.10;99.90;;;19.45;74.57;100128.63;6287257;22;20007;-88
2021/06/30 16:35:13;;;;;;;11.68;10.20;;;18.10;99.90;;;19.56;73.37;100139.75;6287727;22;20015;-91
2021/06/30 16:37:39;;;;;;;12.00;8.98;;;18.20;99.90;;;19.83;73.24;100129.16;6287256;22;20499;-92
2021/06/30 16:40:09;;;;;;;10.45;9.18;;;18.30;99.90;;;19.97;72.88;100131.72;6290801;22;20018;-92
2021/06/30 16:42:35;;;;;;;11.00;9.48;;;18.40;99.90;;;20.05;72.12;100131.56;6289276;22;20023;-90
2021/06/30 16:45:05;;;;;;;15.98;11.05;;;18.60;99.90;;;19.93;72.29;100125.31;6287456;22;20007;-90
2021/06/30 16:47:31;;;;;;;12.10;10.23;;;18.60;99.90;;;20.03;71.25;100126.34;6287057;22;20011;-91
2021/06/30 16:50:00;;;;;;;11.55;10.35;;;18.70;99.90;;;20.18;70.79;100129.69;6289518;22;20011;-92
2021/06/30 16:52:29;;;;;;;11.32;9.88;;;18.70;99.90;;;20.20;71.06;100128.00;6295746;22;20003;-91
2021/06/30 16:54:55;;;;;;;10.90;9.80;;;18.80;99.90;;;20.21;71.60;100134.50;6298184;22;20059;-89
2021/06/30 16:57:25;;;;;;;10.25;9.20;;;18.80;99.90;;;20.07;71.30;100124.22;6296443;22;19995;-89
2021/06/30 16:59:53;;;;;;;9.52;7.38;;;18.70;99.90;;;20.07;71.52;100129.13;6297927;22;20007;-93
2021/06/30 17:02:19;;;;;;;9.20;7.00;;;18.70;99.90;;;19.99;72.34;100131.28;6294284;22;20457;-92
2021/06/30 17:04:51;;;;;;;12.05;8.38;;;18.70;99.90;;;19.90;72.15;100128.22;6295825;22;20007;-90
2021/06/30 17:07:17;;;;;;;9.07;7.47;;;18.60;99.90;;;19.92;73.22;100139.91;6294205;22;20011;-90
2021/06/30 17:09:43;;;;;;;10.73;8.10;;;18.60;99.90;;;19.68;74.01;100132.69;6298815;22;20026;-91
2021/06/30 17:12:11;;;;;;;8.38;6.80;;;18.40;99.90;;;19.78;74.16;100140.97;6297082;22;20007;-89
2021/06/30 17:14:39;;;;;;;8.52;6.13;;;18.40;99.90;;;19.62;74.54;100145.75;6290990;22;20090;-89
2021/06/30 17:17:09;;;;;;;7.70;5.97;;;18.30;99.90;;;19.46;74.97;100147.22;6281936;22;20035;-91
2021/06/30 17:19:35;;;;;;;5.55;4.63;;;18.20;99.90;;;19.39;75.57;100157.84;6291225;22;20094;-92
2021/06/30 17:22:03;;;;;;;7.10;4.22;;;18.10;99.90;;;19.30;75.52;100157.56;6289894;22;20143;-90
2021/06/30 17:24:30;;;;;;;5.45;4.22;;;17.90;99.90;;;19.20;76.13;100150.06;6292714;22;20000;-89
2021/06/30 17:26:56;;;;;;;4.47;3.47;;;17.90;99.90;;;19.30;76.04;100154.75;6289676;22;20008;-88
2021/06/30 17:29:30;;;;;;;4.32;3.38;;;18.00;99.90;;;19.23;76.25;100149.22;6283310;22;20003;-90
2021/06/30 17:32:00;;;;;;;3.40;3.10;;;17.90;99.90;;;19.31;75.75;100160.00;6286305;22;20067;-88
2021/06/30 17:34:28;;;;;;;4.43;3.92;;;17.90;99.90;;;19.13;76.32;100150.19;6283471;22;19999;-91
2021/06/30 17:36:57;;;;;;;5.43;3.72;;;17.80;99.90;;;19.15;76.48;100156.19;6283521;22;20102;-90
2021/06/30 17:39:29;;;;;;;4.60;3.00;;;17.80;99.90;;;18.90;78.04;100150.94;6308612;22;20027;-91
2021/06/30 17:41:59;;;;;;;3.08;2.75;;;17.70;99.90;;;19.12;77.51;100157.88;6282812;22;20504;-90
2021/06/30 17:44:25;;;;;;;3.40;2.95;;;17.80;99.90;;;19.10;76.95;100162.34;6280810;22;20091;-90
2021/06/30 17:46:57;;;;;;;4.28;3.47;;;17.70;99.90;;;19.02;76.97;100152.38;6280706;22;20004;-91
2021/06/30 17:49:27;;;;;;;4.88;2.65;;;17.70;99.90;;;19.18;76.95;100156.16;6281087;22;20004;-92
2021/06/30 17:51:53;;;;;;;3.17;2.65;;;17.70;99.90;;;19.25;77.27;100164.53;6291046;22;20016;-91
2021/06/30 17:54:19;;;;;;;5.03;2.60;;;17.80;99.90;;;19.40;76.94;100165.13;6286577;22;20061;-89
2021/06/30 17:56:50;;;;;;;3.83;2.78;;;17.90;99.90;;;19.29;77.22;100159.63;6280484;22;20015;-89
2021/06/30 17:59:24;;;;;;;2.97;2.42;;;18.00;99.90;;;19.32;77.17;100158.78;6281020;22;20007;-92
2021/06/30 18:01:55;;;;;;;3.72;2.90;;;18.00;99.90;;;19.42;77.20;100168.34;6280487;22;20318;-89
2021/06/30 18:04:21;;;;;;;3.13;2.75;;;18.00;99.90;;;19.40;77.38;100167.97;6299798;22;20025;-89
2021/06/30 18:06:59;;;;;;;4.90;3.22;;;18.00;99.90;;;19.33;77.49;100170.88;6301132;22;20019;-91
2021/06/30 18:09:25;;;;;;;3.80;3.17;;;17.90;99.90;;;19.30;77.56;100175.38;6301916;22;20019;-89
2021/06/30 18:11:52;;;;;;;8.20;5.10;;;17.90;99.90;;;19.20;77.74;100173.50;6290202;22;20008;-90
2021/06/30 18:14:19;;;;;;;9.02;5.03;;;17.80;99.90;;;19.19;78.26;100174.75;6291467;22;20003;-91
2021/06/30 18:16:48;;;;;;;5.82;3.90;;;17.70;99.90;;;19.01;78.82;100174.19;6290155;22;20479;-90
2021/06/30 18:19:14;;;;;;;5.72;4.35;;;17.70;99.90;;;19.15;78.30;100173.19;6289795;22;20019;-90
2021/06/30 18:21:44;;;;;;;5.38;3.75;;;17.80;99.90;;;19.22;78.34;100179.56;6302251;22;20004;-89
2021/06/30 18:24:12;;;;;;;5.13;3.85;;;17.70;99.90;;;19.10;78.36;100185.00;6293854;22;20015;-89
2021/06/30 18:26:38;;;;;;;5.03;3.70;;;17.70;99.90;;;19.02;78.72;100186.31;6295001;22;20022;-91
2021/06/30 18:29:23;;;;;;;3.75;3.40;;;17.70;99.90;;;18.80;79.78;100186.63;6291840;22;20011;-89
2021/06/30 18:31:51;;;;;;;6.03;3.63;;;17.50;99.90;;;18.55;82.11;100193.84;6301514;22;19996;-89
2021/06/30 18:34:17;;;;;;;5.93;4.05;;;17.30;99.90;;;18.44;85.49;100202.41;6288595;22;20153;-91
2021/06/30 18:36:44;;;;;;;5.93;4.15;;;17.10;99.90;;;18.29;87.63;100207.44;6287017;22;20007;-90
2021/06/30 18:39:11;;;;;;;5.03;4.20;;;17.00;99.90;;;18.19;87.94;100201.91;6280634;22;20007;-90
2021/06/30 18:41:37;;;;;;;5.88;4.05;;;16.80;99.90;;;17.99;89.88;100201.72;6282337;22;20338;-89
2021/06/30 18:44:09;;;;;;;8.45;3.65;;;16.70;99.90;;;17.95;89.09;100208.63;6288703;22;20011;-87
2021/06/30 18:46:39;;;;;;;5.80;3.80;;;16.60;99.90;;;17.96;91.42;100215.88;6285123;22;20073;-89
2021/06/30 18:49:06;;;;;;;4.65;3.95;;;16.50;99.90;;;17.94;92.75;100216.31;6282530;22;20086;-90
2021/06/30 18:51:32;;;;;;;7.45;4.40;;;16.60;99.90;;;17.89;93.46;100209.06;6281014;22;20008;-89
2021/06/30 18:53:58;;;;;;;7.75;5.60;;;16.50;99.90;;;17.83;94.05;100219.22;6277980;22;20008;-88
2021/06/30 18:56:43;;;;;;;6.10;4.95;;;16.50;99.90;;;17.76;94.84;100215.66;6281883;22;20000;-91
2021/06/30 18:59:11;;;;;;;5.93;4.55;;;16.40;99.90;;;17.78;95.18;100218.88;6281617;22;20093;-88
2021/06/30 19:01:40;;;;;;;6.05;4.68;;;16.40;99.90;;;17.75;94.18;100229.00;6279134;22;20055;-89
2021/06/30 19:04:10;;;;;;;8.93;5.38;;;16.30;99.90;;;17.74;94.83;100223.75;6279525;22;20287;-88
2021/06/30 19:06:36;;;;;;;8.23;5.20;;;16.40;99.90;;;17.74;94.40;100229.41;6282347;22;20008;-90
2021/06/30 19:09:06;;;;;;;9.25;5.10;;;16.40;99.90;;;17.66;94.32;100230.69;6281049;22;20007;-90
2021/06/30 19:11:50;;;;;;;8.60;5.65;;;16.20;99.90;;;17.65;95.36;100229.88;6285070;22;20007;-89
2021/06/30 19:14:16;;;;;;;10.55;6.30;;;16.30;99.90;;;17.67;95.01;100230.25;6284010;22;20090;-89
2021/06/30 19:16:44;;;;;;;10.98;6.15;;;16.30;99.90;;;17.61;95.02;100240.41;6284216;22;20004;-91
2021/06/30 19:19:11;;;;;;;10.10;6.70;;;16.20;99.90;;;17.62;94.88;100244.03;6286091;22;20388;-88
2021/06/30 19:21:39;;;;;;;11.70;7.32;;;16.20;99.90;;;17.63;95.47;100245.63;6288044;22;20015;-90
2021/06/30 19:24:06;;;;;;;11.52;8.27;;;16.20;99.90;;;17.57;94.07;100244.47;6286339;22;20287;-88
2021/06/30 19:26:35;;;;;;;11.50;7.25;;;16.20;99.90;;;17.52;94.34;100231.56;6289848;22;20008;-91
2021/06/30 19:29:05;;;;;;;13.75;7.63;;;16.10;99.90;;;17.50;95.24;100224.75;6285026;22;20008;-89
2021/06/30 19:31:32;;;;;;;11.00;8.02;;;16.10;99.90;;;17.46;94.92;100236.06;6287608;22;20014;-90
2021/06/30 19:34:00;;;;;;;13.00;8.95;;;16.10;99.90;;;17.52;95.31;100242.88;6286285;22;20011;-90
2021/06/30 19:36:26;;;;;;;12.80;8.20;;;16.10;99.90;;;17.47;94.76;100242.47;6287276;22;20004;-90
2021/06/30 19:38:52;;;;;;;14.77;9.35;;;16.10;99.90;;;17.46;94.81;100240.91;6283964;22;20007;-90
2021/06/30 19:41:18;;;;;;;13.88;8.85;;;16.00;99.90;;;17.45;94.44;100244.94;6281929;22;20166;-90
2021/06/30 19:43:44;;;;;;;11.27;8.55;;;16.00;99.90;;;17.46;95.38;100238.06;6280956;22;20012;-91
2021/06/30 19:46:14;;;;;;;13.15;9.02;;;16.10;99.90;;;17.50;95.80;100258.63;6279908;22;20007;-90
2021/06/30 19:48:41;;;;;;;14.38;9.82;;;16.00;99.90;;;17.47;95.64;100256.59;6281146;22;20003;-90
2021/06/30 19:51:13;;;;;;;15.73;9.05;;;16.10;99.90;;;17.43;95.66;100265.13;6281170;22;20450;-91
2021/06/30 19:53:39;;;;;;;18.23;11.13;;;16.00;99.90;;;17.40;95.47;100272.38;6281336;22;20079;-90
2021/06/30 19:56:05;;;;;;;12.63;9.10;;;16.00;99.90;;;17.36;94.71;100280.09;6280428;22;20081;-90
2021/06/30 19:58:33;;;;;;;17.15;10.82;;;15.90;99.90;;;17.24;94.51;100266.44;6280056;22;20034;-88